This is the latest recevied weather packets stored in our database for station/object KC9DNQ-3. If no packets are shown the sender has not sent any weather packets the latest 10 day(s).
| Time | Temp. | Humidity | Pressure | Rain* | Wind** | Luminosity | Snow |
|---|---|---|---|---|---|---|---|
| 1777845608 | 20° C | 42% | 1006 hPa | 0 mm | - | 615 W/m² | - |
| 1777845308 | 19.44° C | 43% | 1005.9 hPa | 0 mm | - | 163 W/m² | - |
| 1777845008 | 19.44° C | 42% | 1006.2 hPa | 0 mm | - | 142 W/m² | - |
| 1777844706 | 19.44° C | 42% | 1006.1 hPa | 0 mm | - | 156 W/m² | - |
| 1777844407 | 19.44° C | 43% | 1006.2 hPa | 0 mm | - | 183 W/m² | - |
| 1777844107 | 19.44° C | 42% | 1006.2 hPa | 0 mm | - | 185 W/m² | - |
| 1777843807 | 19.44° C | 41% | 1006.2 hPa | 0 mm | - | 163 W/m² | - |
| 1777843508 | 19.44° C | 42% | 1006.4 hPa | 0 mm | - | 186 W/m² | - |
| 1777843207 | 19.44° C | 42% | 1006.4 hPa | 0 mm | - | 244 W/m² | - |
| 1777842907 | 19.44° C | 45% | 1006.5 hPa | 0 mm | - | 287 W/m² | - |
| 1777842607 | 19.44° C | 43% | 1006.7 hPa | 0 mm | - | 288 W/m² | - |
| 1777842306 | 19.44° C | 42% | 1006.7 hPa | 0 mm | - | 160 W/m² | - |
| 1777842006 | 19.44° C | 43% | 1006.8 hPa | 0 mm | - | 211 W/m² | - |
| 1777841708 | 19.44° C | 43% | 1006.8 hPa | 0 mm | - | 272 W/m² | - |
| 1777841407 | 18.89° C | 44% | 1007.2 hPa | 0 mm | - | 905 W/m² | - |
| 1777841107 | 18.89° C | 43% | 1007.2 hPa | 0 mm | - | 218 W/m² | - |
| 1777840807 | 18.89° C | 42% | 1007.2 hPa | 0 mm | - | 230 W/m² | - |
| 1777840508 | 18.89° C | 43% | 1007.5 hPa | 0 mm | - | 251 W/m² | - |
| 1777840207 | 18.89° C | 42% | 1007.5 hPa | 0 mm | - | 237 W/m² | - |
| 1777839907 | 18.89° C | 43% | 1007.5 hPa | 0 mm | - | 265 W/m² | - |
| 1777839607 | 19.44° C | 40% | 1007.6 hPa | 0 mm | - | 301 W/m² | - |
| 1777839306 | 20° C | 40% | 1007.7 hPa | 0 mm | - | 506 W/m² | - |
| 1777839008 | 20° C | 42% | 1007.8 hPa | 0 mm | - | 909 W/m² | - |
| 1777838707 | 19.44° C | 39% | 1007.8 hPa | 0 mm | - | 875 W/m² | - |
| 1777838407 | 19.44° C | 41% | 1007.9 hPa | 0 mm | - | 933 W/m² | - |
* Rain latest hour (hover to see other rain measurements)
** Current wind speed in m/s (hover to see current wind gust speed)